Главная страница
METAR-TAF:

METAR-TAF

Аэропорты :

Талаги

Архангельск, Россия

широта: 64-30N, долгота: 040-44E, высота над уровнем моря: 13 м

Текущие метеонаблюдения

Эта сводка был подготовлена 34 минут назад, в 22:00 UTC
Ветер 6 Узел от южный
Температура 14°C
Влажность 94%
Давление 1018 hPa
Видимость 10 км и более
небольшая облачность на высоте 4000 фута

METAR: ULAA 172200Z 19003MPS 9999 FEW040 14/13 Q1018 R08/CLRD70 NOSIG RMK QFE763/1017

Время: 01:34 (22:34 UTC)

Прогноз

Эта сводка был подготовлена 2 часа и 36 минут назад, в 19:58 UTC
Прогноз действительный с 17-го 21 UTC до 18-го 21 UTC
Ветер 6 Узел от южный-юго-западный
Видимость 10 км и более
Отдельные облака на высоте 2000 фута
временами
С 17-го 21 UTC до 18-го 01 UTC
Видимость: 3100 м
Рассеянная облачность на высоте 1500 фута
дымка
временами
С 18-го 04 UTC до 18-го 15 UTC
Ветер 8 Узел от юго-западный с порывами до 21 Узел

TAF: ULAA 171958Z 1721/1821 20003MPS 9999 SCT020 TEMPO 1721/1801 3100 BR BKN015 TEMPO 1804/1815 22004G11MPS

Метеонаблюдения и прогнозы для более 4000 аэропортов (сводки METAR и TAF).

Имеющиеся станции представлены на карте желтыми и красными точками.

Чтобы увидеть название станции, наведите на нее мышь.

Затем щелкните, чтобы увидеть метеонаблюдения и метеопрогнозы.

Управление картой: чтобы увеличить масштаб, щелкните зеленые кнопки с черным крестиком; чтобы уменьшить масштаб, щелкните зеленую кнопку с тире; для просмотра соседних карт щелкайте зеленые стрелки.


METAR-TAF: